Time,TemperatureF,DewpointF,PressureIn,WindDirection,WindDirectionDegrees,WindSpeedMPH,WindSpeedGustMPH,Humidity,HourlyPrecipIn,Conditions,Clouds,dailyrainin,SoftwareType,DateUTC
2013-06-06 00:02:00,77.5,34.6,25.34,SSE,158,6.5,6.5,21,0.00,,---,0.00,VWS V14.01,2013-06-06 05:02:00,
2013-06-06 00:07:00,77.5,34.6,25.34,SSE,158,9.8,9.8,21,0.00,,---,0.00,VWS V14.01,2013-06-06 05:07:00,
2013-06-06 00:12:00,77.5,34.6,25.34,SSE,158,10.1,10.1,21,0.00,,---,0.00,VWS V14.01,2013-06-06 05:12:00,
2013-06-06 00:17:00,77.5,34.6,25.34,SE,135,12.1,12.1,21,0.00,,---,0.00,VWS V14.01,2013-06-06 05:17:00,
2013-06-06 00:22:00,77.5,34.6,25.34,SE,135,13.0,13.0,21,0.00,,---,0.00,VWS V14.01,2013-06-06 05:22:00,
2013-06-06 00:27:00,77.5,34.6,25.34,SE,135,13.0,13.0,21,0.00,,---,0.00,VWS V14.01,2013-06-06 05:27:00,
2013-06-06 00:32:00,77.5,34.6,25.34,ESE,112,9.8,13.0,21,0.00,,---,0.00,VWS V14.01,2013-06-06 05:32:00,
2013-06-06 00:37:00,77.5,34.6,25.34,ESE,112,9.8,9.8,21,0.00,,---,0.00,VWS V14.01,2013-06-06 05:37:00,
2013-06-06 00:42:00,77.5,34.6,25.34,SSE,158,11.0,11.0,21,0.00,,---,0.00,VWS V14.01,2013-06-06 05:42:00,
2013-06-06 00:47:00,76.8,34.0,25.34,SE,135,10.1,10.1,21,0.00,,---,0.00,VWS V14.01,2013-06-06 05:47:00,
2013-06-06 00:52:00,76.8,34.0,25.34,ESE,112,10.1,10.1,21,0.00,,---,0.00,VWS V14.01,2013-06-06 05:52:00,
2013-06-06 00:57:00,76.8,34.0,25.34,ESE,112,10.1,10.1,21,0.00,,---,0.00,VWS V14.01,2013-06-06 05:57:00,
2013-06-06 01:02:00,76.5,33.7,25.34,SSE,158,7.8,7.8,21,0.00,,---,0.00,VWS V14.01,2013-06-06 06:02:00,
2013-06-06 01:07:00,76.5,33.7,25.34,SSE,158,7.8,7.8,21,0.00,,---,0.00,VWS V14.01,2013-06-06 06:07:00,
2013-06-06 01:12:00,76.5,33.7,25.34,SE,135,13.0,13.0,21,0.00,,---,0.00,VWS V14.01,2013-06-06 06:12:00,
2013-06-06 01:17:00,76.5,33.7,25.34,SSE,158,9.8,9.8,21,0.00,,---,0.00,VWS V14.01,2013-06-06 06:17:00,
2013-06-06 01:22:00,76.5,33.7,25.34,SSE,158,10.1,10.1,21,0.00,,---,0.00,VWS V14.01,2013-06-06 06:22:00,
2013-06-06 01:27:00,76.3,33.5,25.34,SSE,158,10.1,10.1,21,0.00,,---,0.00,VWS V14.01,2013-06-06 06:27:00,
2013-06-06 01:32:00,76.3,33.5,25.31,SSE,158,10.3,10.3,21,0.00,,---,0.00,VWS V14.01,2013-06-06 06:32:00,
2013-06-06 01:37:00,76.3,33.5,25.31,SSE,158,10.1,10.3,21,0.00,,---,0.00,VWS V14.01,2013-06-06 06:37:00,
2013-06-06 01:42:00,76.3,33.5,25.31,SSE,158,11.9,11.9,21,0.00,,---,0.00,VWS V14.01,2013-06-06 06:42:00,
2013-06-06 01:47:00,76.5,33.7,25.31,SSE,158,14.8,14.8,21,0.00,,---,0.00,VWS V14.01,2013-06-06 06:47:00,
2013-06-06 01:52:00,76.5,33.7,25.31,SSE,158,14.8,14.8,21,0.00,,---,0.00,VWS V14.01,2013-06-06 06:52:00,
2013-06-06 01:57:00,76.5,33.7,25.31,South,180,8.7,8.7,21,0.00,,---,0.00,VWS V14.01,2013-06-06 06:57:00,
2013-06-06 02:02:00,76.5,33.7,25.31,NW,315,17.0,17.0,21,0.00,,---,0.00,VWS V14.01,2013-06-06 07:02:00,
2013-06-06 02:07:00,76.3,33.5,25.31,NW,315,13.6,17.0,21,0.00,,---,0.00,VWS V14.01,2013-06-06 07:07:00,
2013-06-06 02:12:00,76.3,33.5,25.31,NW,315,13.6,13.6,21,0.00,,---,0.00,VWS V14.01,2013-06-06 07:12:00,
2013-06-06 02:17:00,76.3,33.5,25.37,NW,315,14.3,14.3,21,0.00,,---,0.00,VWS V14.01,2013-06-06 07:17:00,
2013-06-06 02:22:00,76.3,33.5,25.37,NW,315,14.3,14.3,21,0.00,,---,0.00,VWS V14.01,2013-06-06 07:22:00,
2013-06-06 02:27:00,76.3,33.5,25.37,NNW,338,15.2,15.2,21,0.00,,---,0.00,VWS V14.01,2013-06-06 07:27:00,
2013-06-06 02:32:00,69.6,36.0,25.37,NW,315,11.0,11.0,29,0.00,,---,0.00,VWS V14.01,2013-06-06 07:32:00,
2013-06-06 02:37:00,69.6,36.0,25.37,NW,315,11.2,11.2,29,0.00,,---,0.00,VWS V14.01,2013-06-06 07:37:00,
2013-06-06 02:42:00,69.6,36.0,25.34,NNW,338,10.1,10.1,29,0.00,,---,0.00,VWS V14.01,2013-06-06 07:42:00,
2013-06-06 02:47:00,69.6,36.0,25.34,NW,315,10.3,10.3,29,0.00,,---,0.00,VWS V14.01,2013-06-06 07:47:00,
2013-06-06 02:52:00,69.6,36.0,25.37,North,0,13.0,13.0,29,0.00,,---,0.00,VWS V14.01,2013-06-06 07:52:00,
2013-06-06 02:57:00,69.6,36.0,25.37,North,0,9.4,9.4,29,0.00,,---,0.00,VWS V14.01,2013-06-06 07:57:00,
2013-06-06 03:02:00,67.8,39.9,25.37,North,0,10.7,15.4,36,0.00,,---,0.00,VWS V14.01,2013-06-06 08:02:00,
2013-06-06 03:07:00,67.1,40.7,25.37,NNW,338,11.0,11.0,38,0.00,,---,0.00,VWS V14.01,2013-06-06 08:07:00,
2013-06-06 03:12:00,67.1,40.7,25.37,NNW,338,11.0,11.0,38,0.00,,---,0.00,VWS V14.01,2013-06-06 08:12:00,
2013-06-06 03:17:00,67.1,40.7,25.42,North,0,12.1,12.1,38,0.00,,---,0.00,VWS V14.01,2013-06-06 08:17:00,
2013-06-06 03:22:00,66.2,42.5,25.42,NNW,338,8.5,8.5,42,0.00,,---,0.00,VWS V14.01,2013-06-06 08:22:00,
2013-06-06 03:27:00,66.2,42.5,25.42,North,0,11.9,11.9,42,0.00,,---,0.00,VWS V14.01,2013-06-06 08:27:00,
2013-06-06 03:32:00,66.2,42.5,25.42,North,0,11.9,11.9,42,0.00,,---,0.00,VWS V14.01,2013-06-06 08:32:00,
2013-06-06 03:37:00,66.2,42.5,25.42,North,0,7.8,11.9,42,0.00,,---,0.00,VWS V14.01,2013-06-06 08:37:00,
2013-06-06 03:42:00,66.2,42.5,25.42,North,0,7.8,7.8,42,0.00,,---,0.00,VWS V14.01,2013-06-06 08:42:00,
2013-06-06 03:47:00,66.2,42.5,25.42,NNW,338,4.9,8.1,42,0.00,,---,0.00,VWS V14.01,2013-06-06 08:47:00,
2013-06-06 03:52:00,64.9,42.5,25.42,NNW,338,6.0,6.0,44,0.00,,---,0.00,VWS V14.01,2013-06-06 08:52:00,
2013-06-06 03:57:00,64.9,42.5,25.42,NNW,338,10.5,10.5,44,0.00,,---,0.00,VWS V14.01,2013-06-06 08:57:00,
2013-06-06 04:02:00,64.9,42.5,25.42,NNW,338,10.5,10.5,44,0.00,,---,0.00,VWS V14.01,2013-06-06 09:02:00,
2013-06-06 04:07:00,64.9,42.5,25.39,NNW,338,7.8,7.8,44,0.00,,---,0.00,VWS V14.01,2013-06-06 09:07:00,
2013-06-06 04:12:00,64.9,42.5,25.39,NNW,338,7.8,7.8,44,0.00,,---,0.00,VWS V14.01,2013-06-06 09:12:00,
2013-06-06 04:17:00,64.9,42.5,25.39,North,0,13.0,13.0,44,0.00,,---,0.00,VWS V14.01,2013-06-06 09:17:00,
2013-06-06 04:22:00,64.8,43.0,25.42,NNE,22,11.2,11.2,45,0.00,,---,0.00,VWS V14.01,2013-06-06 09:22:00,
2013-06-06 04:27:00,64.8,43.0,25.42,NNE,22,8.7,8.7,45,0.00,,---,0.00,VWS V14.01,2013-06-06 09:27:00,
2013-06-06 04:32:00,64.8,43.0,25.42,NNE,22,8.7,8.7,45,0.00,,---,0.00,VWS V14.01,2013-06-06 09:32:00,
2013-06-06 04:37:00,64.8,43.0,25.42,North,0,8.5,8.7,45,0.00,,---,0.00,VWS V14.01,2013-06-06 09:37:00,
2013-06-06 04:42:00,64.8,43.0,25.42,NNE,22,9.8,9.8,45,0.00,,---,0.00,VWS V14.01,2013-06-06 09:42:00,
2013-06-06 04:47:00,64.8,43.0,25.42,NNE,22,9.8,9.8,45,0.00,,---,0.00,VWS V14.01,2013-06-06 09:47:00,
2013-06-06 04:52:00,64.8,43.0,25.42,NNE,22,6.0,6.0,45,0.00,,---,0.00,VWS V14.01,2013-06-06 09:52:00,
2013-06-06 04:57:00,64.8,43.0,25.42,NNE,22,6.0,6.0,45,0.00,,---,0.00,VWS V14.01,2013-06-06 09:57:00,
2013-06-06 05:02:00,64.8,43.0,25.42,NNE,22,6.0,6.0,45,0.00,,---,0.00,VWS V14.01,2013-06-06 10:02:00,
2013-06-06 05:07:00,64.8,43.0,25.42,North,0,5.6,5.6,45,0.00,,---,0.00,VWS V14.01,2013-06-06 10:07:00,
2013-06-06 05:12:00,64.8,43.0,25.42,North,0,5.4,5.4,45,0.00,,---,0.00,VWS V14.01,2013-06-06 10:12:00,
2013-06-06 05:17:00,64.8,43.0,25.42,North,0,5.4,5.4,45,0.00,,---,0.00,VWS V14.01,2013-06-06 10:17:00,
2013-06-06 05:22:00,64.8,43.0,25.42,NNE,22,5.6,5.6,45,0.00,,---,0.00,VWS V14.01,2013-06-06 10:22:00,
2013-06-06 05:27:00,64.8,43.0,25.42,NNE,22,6.0,6.0,45,0.00,,---,0.00,VWS V14.01,2013-06-06 10:27:00,
2013-06-06 05:32:00,62.4,43.0,25.42,NNE,22,6.5,6.5,49,0.00,,---,0.00,VWS V14.01,2013-06-06 10:32:00,
2013-06-06 05:37:00,62.4,43.0,25.42,NNE,22,6.5,6.5,49,0.00,,---,0.00,VWS V14.01,2013-06-06 10:37:00,
2013-06-06 05:42:00,62.2,42.9,25.42,NNE,22,4.3,4.3,49,0.00,,---,0.00,VWS V14.01,2013-06-06 10:42:00,
2013-06-06 05:47:00,62.1,43.2,25.42,NE,45,5.8,5.8,50,0.00,,---,0.00,VWS V14.01,2013-06-06 10:47:00,
2013-06-06 05:52:00,61.7,42.4,25.42,NE,45,5.8,5.8,49,0.00,,---,0.00,VWS V14.01,2013-06-06 10:52:00,
2013-06-06 05:57:00,61.7,42.4,25.42,NE,45,5.8,5.8,49,0.00,,---,0.00,VWS V14.01,2013-06-06 10:57:00,
2013-06-06 06:02:00,61.7,42.4,25.42,East,90,2.2,2.2,49,0.00,,---,0.00,VWS V14.01,2013-06-06 11:02:00,
2013-06-06 06:07:00,61.7,42.4,25.42,East,90,2.2,2.2,49,0.00,,---,0.00,VWS V14.01,2013-06-06 11:07:00,
2013-06-06 06:12:00,60.8,43.6,25.42,East,90,2.2,2.2,53,0.00,,---,0.00,VWS V14.01,2013-06-06 11:12:00,
2013-06-06 06:17:00,60.8,43.6,25.42,ENE,68,3.4,3.4,53,0.00,,---,0.00,VWS V14.01,2013-06-06 11:17:00,
2013-06-06 06:22:00,60.8,43.6,25.42,ENE,68,2.9,2.9,53,0.00,,---,0.00,VWS V14.01,2013-06-06 11:22:00,
2013-06-06 06:27:00,60.8,43.6,25.42,ENE,68,3.1,3.4,53,0.00,,---,0.00,VWS V14.01,2013-06-06 11:27:00,
2013-06-06 06:32:00,60.8,43.6,25.42,ENE,68,3.1,3.1,53,0.00,,---,0.00,VWS V14.01,2013-06-06 11:32:00,
2013-06-06 06:37:00,60.6,44.4,25.42,ENE,68,3.1,3.1,55,0.00,,---,0.00,VWS V14.01,2013-06-06 11:37:00,
2013-06-06 06:42:00,60.6,44.4,25.42,ENE,68,3.1,3.1,55,0.00,,---,0.00,VWS V14.01,2013-06-06 11:42:00,
2013-06-06 06:47:00,60.6,44.4,25.42,ESE,112,4.9,4.9,55,0.00,,---,0.00,VWS V14.01,2013-06-06 11:47:00,
2013-06-06 06:52:00,59.9,44.2,25.42,ESE,112,4.9,4.9,56,0.00,,---,0.00,VWS V14.01,2013-06-06 11:52:00,
2013-06-06 06:57:00,59.5,44.3,25.42,ESE,112,4.3,4.9,57,0.00,,---,0.00,VWS V14.01,2013-06-06 11:57:00,
2013-06-06 07:02:00,59.5,44.3,25.42,SE,135,3.8,4.3,57,0.00,,---,0.00,VWS V14.01,2013-06-06 12:02:00,
2013-06-06 07:07:00,59.5,44.3,25.42,ESE,112,3.8,3.8,57,0.00,,---,0.00,VWS V14.01,2013-06-06 12:07:00,
2013-06-06 07:12:00,59.5,44.3,25.42,East,90,4.3,4.3,57,0.00,,---,0.00,VWS V14.01,2013-06-06 12:12:00,
2013-06-06 07:17:00,59.5,44.3,25.42,East,90,4.3,4.3,57,0.00,,---,0.00,VWS V14.01,2013-06-06 12:17:00,
2013-06-06 07:22:00,59.5,44.3,25.42,ESE,112,3.4,4.3,57,0.00,,---,0.00,VWS V14.01,2013-06-06 12:22:00,
2013-06-06 07:27:00,60.3,45.0,25.42,ESE,112,3.8,3.8,57,0.00,,---,0.00,VWS V14.01,2013-06-06 12:27:00,
2013-06-06 07:32:00,60.3,45.0,25.42,ENE,68,2.9,3.8,57,0.00,,---,0.00,VWS V14.01,2013-06-06 12:32:00,
2013-06-06 07:37:00,60.3,45.0,25.42,ENE,68,2.9,2.9,57,0.00,,---,0.00,VWS V14.01,2013-06-06 12:37:00,
2013-06-06 07:42:00,62.2,45.4,25.42,ENE,68,2.9,2.9,54,0.00,,---,0.00,VWS V14.01,2013-06-06 12:42:00,
2013-06-06 07:47:00,62.2,45.4,25.42,ENE,68,2.9,2.9,54,0.00,,---,0.00,VWS V14.01,2013-06-06 12:47:00,
2013-06-06 07:52:00,62.2,45.4,25.42,ENE,68,2.9,2.9,54,0.00,,---,0.00,VWS V14.01,2013-06-06 12:52:00,
2013-06-06 07:57:00,62.2,45.4,25.42,ENE,68,7.6,7.6,54,0.00,,---,0.00,VWS V14.01,2013-06-06 12:57:00,
2013-06-06 08:02:00,65.3,44.0,25.42,NNE,22,7.8,7.8,46,0.00,,---,0.00,VWS V14.01,2013-06-06 13:02:00,
2013-06-06 08:07:00,65.3,44.0,25.42,NE,45,6.0,6.0,46,0.00,,---,0.00,VWS V14.01,2013-06-06 13:07:00,
2013-06-06 08:12:00,65.3,44.0,25.42,NE,45,8.1,8.1,46,0.00,,---,0.00,VWS V14.01,2013-06-06 13:12:00,
2013-06-06 08:17:00,65.3,44.0,25.42,ENE,68,10.5,10.5,46,0.00,,---,0.00,VWS V14.01,2013-06-06 13:17:00,
2013-06-06 08:22:00,65.3,44.0,25.42,NE,45,10.3,10.3,46,0.00,,---,0.00,VWS V14.01,2013-06-06 13:22:00,
2013-06-06 08:27:00,65.3,44.0,25.42,NNE,22,8.1,12.5,46,0.00,,---,0.00,VWS V14.01,2013-06-06 13:27:00,
2013-06-06 08:32:00,65.3,44.0,25.42,NE,45,12.3,12.3,46,0.00,,---,0.00,VWS V14.01,2013-06-06 13:32:00,
2013-06-06 08:37:00,65.3,44.0,25.42,NE,45,12.3,12.3,46,0.00,,---,0.00,VWS V14.01,2013-06-06 13:37:00,
2013-06-06 08:42:00,65.3,44.0,25.42,NE,45,12.3,12.3,46,0.00,,---,0.00,VWS V14.01,2013-06-06 13:42:00,
2013-06-06 08:47:00,65.3,44.0,25.42,NE,45,12.3,12.3,46,0.00,,---,0.00,VWS V14.01,2013-06-06 13:47:00,
2013-06-06 08:52:00,65.3,44.0,25.45,NE,45,12.3,12.3,46,0.00,,---,0.00,VWS V14.01,2013-06-06 13:52:00,
2013-06-06 08:57:00,65.3,44.0,25.45,NE,45,12.3,12.3,46,0.00,,---,0.00,VWS V14.01,2013-06-06 13:57:00,
2013-06-06 09:02:00,65.3,44.0,25.45,NE,45,7.8,12.3,46,0.00,,---,0.00,VWS V14.01,2013-06-06 14:02:00,
2013-06-06 09:07:00,65.3,44.0,25.45,NNE,22,11.0,11.0,46,0.00,,---,0.00,VWS V14.01,2013-06-06 14:07:00,
2013-06-06 09:12:00,65.3,44.0,25.45,NNE,22,11.0,11.0,46,0.00,,---,0.00,VWS V14.01,2013-06-06 14:12:00,
2013-06-06 09:17:00,65.3,44.0,25.45,NE,45,10.7,10.7,46,0.00,,---,0.00,VWS V14.01,2013-06-06 14:17:00,
2013-06-06 09:22:00,65.3,44.0,25.45,NE,45,10.1,10.1,46,0.00,,---,0.00,VWS V14.01,2013-06-06 14:22:00,
2013-06-06 09:27:00,65.3,44.0,25.45,NNE,22,7.6,7.6,46,0.00,,---,0.00,VWS V14.01,2013-06-06 14:27:00,
2013-06-06 09:32:00,65.3,44.0,25.45,NE,45,10.7,10.7,46,0.00,,---,0.00,VWS V14.01,2013-06-06 14:32:00,
2013-06-06 09:37:00,65.3,44.0,25.45,NE,45,13.0,13.0,46,0.00,,---,0.00,VWS V14.01,2013-06-06 14:37:00,
2013-06-06 09:42:00,65.3,44.0,25.45,NNE,22,10.5,10.5,46,0.00,,---,0.00,VWS V14.01,2013-06-06 14:42:00,
2013-06-06 09:47:00,65.3,44.0,25.45,North,0,10.5,10.5,46,0.00,,---,0.00,VWS V14.01,2013-06-06 14:47:00,
2013-06-06 09:52:00,65.3,44.0,25.45,North,0,10.5,10.5,46,0.00,,---,0.00,VWS V14.01,2013-06-06 14:52:00,
2013-06-06 09:57:00,65.3,44.0,25.45,ENE,68,10.3,10.5,46,0.00,,---,0.00,VWS V14.01,2013-06-06 14:57:00,
2013-06-06 10:02:00,65.3,44.0,25.42,NNE,22,9.8,9.8,46,0.00,,---,0.00,VWS V14.01,2013-06-06 15:02:00,
2013-06-06 10:07:00,71.8,42.7,25.42,NNE,22,15.2,15.2,35,0.00,,---,0.00,VWS V14.01,2013-06-06 15:07:00,
2013-06-06 10:12:00,71.8,42.7,25.42,NNE,22,15.2,15.2,35,0.00,,---,0.00,VWS V14.01,2013-06-06 15:12:00,
2013-06-06 10:17:00,71.8,42.7,25.42,NE,45,10.3,10.3,35,0.00,,---,0.00,VWS V14.01,2013-06-06 15:17:00,
2013-06-06 10:22:00,71.8,42.7,25.45,NE,45,10.3,10.3,35,0.00,,---,0.00,VWS V14.01,2013-06-06 15:22:00,
2013-06-06 10:27:00,73.2,44.0,25.45,NE,45,10.3,10.3,35,0.00,,---,0.00,VWS V14.01,2013-06-06 15:27:00,
2013-06-06 10:32:00,73.2,44.0,25.45,NE,45,10.3,10.3,35,0.00,,---,0.00,VWS V14.01,2013-06-06 15:32:00,
2013-06-06 10:37:00,73.2,44.0,25.45,NE,45,10.3,10.3,35,0.00,,---,0.00,VWS V14.01,2013-06-06 15:37:00,
2013-06-06 10:42:00,73.8,44.4,25.45,ENE,68,10.3,13.2,35,0.00,,---,0.00,VWS V14.01,2013-06-06 15:42:00,
2013-06-06 10:47:00,73.8,44.4,25.45,NE,45,10.7,10.7,35,0.00,,---,0.00,VWS V14.01,2013-06-06 15:47:00,
2013-06-06 10:52:00,73.8,44.4,25.48,NE,45,10.7,10.7,35,0.00,,---,0.00,VWS V14.01,2013-06-06 15:52:00,
2013-06-06 10:57:00,73.8,44.4,25.48,NE,45,10.7,10.7,35,0.00,,---,0.00,VWS V14.01,2013-06-06 15:57:00,
2013-06-06 11:02:00,73.8,44.4,25.48,NE,45,10.7,10.7,35,0.00,,---,0.00,VWS V14.01,2013-06-06 16:02:00,
2013-06-06 11:07:00,73.8,44.4,25.48,ENE,68,15.2,15.2,35,0.00,,---,0.00,VWS V14.01,2013-06-06 16:07:00,
2013-06-06 11:12:00,73.8,44.4,25.48,NNE,22,16.1,16.1,35,0.00,,---,0.00,VWS V14.01,2013-06-06 16:12:00,
2013-06-06 11:17:00,73.8,44.4,25.48,NE,45,7.8,7.8,35,0.00,,---,0.00,VWS V14.01,2013-06-06 16:17:00,
2013-06-06 11:23:00,73.8,44.4,25.48,NE,45,6.5,7.8,35,0.00,,---,0.00,VWS V14.01,2013-06-06 16:23:00,
2013-06-06 11:28:00,73.8,44.4,25.48,NNE,22,15.4,15.4,35,0.00,,---,0.00,VWS V14.01,2013-06-06 16:28:00,
2013-06-06 11:33:00,73.8,44.4,25.48,NNE,22,15.4,15.4,35,0.00,,---,0.00,VWS V14.01,2013-06-06 16:33:00,
2013-06-06 11:38:00,73.8,44.4,25.48,NE,45,12.1,15.4,35,0.00,,---,0.00,VWS V14.01,2013-06-06 16:38:00,
2013-06-06 11:43:00,73.8,44.4,25.48,NE,45,12.1,12.1,35,0.00,,---,0.00,VWS V14.01,2013-06-06 16:43:00,
2013-06-06 11:48:00,73.8,44.4,25.48,NNE,22,13.0,13.0,35,0.00,,---,0.00,VWS V14.01,2013-06-06 16:48:00,
2013-06-06 11:53:00,73.8,44.4,25.48,NNE,22,13.0,13.0,35,0.00,,---,0.00,VWS V14.01,2013-06-06 16:53:00,
2013-06-06 11:58:00,77.2,45.1,25.48,NE,45,15.2,15.2,32,0.00,,---,0.00,VWS V14.01,2013-06-06 16:58:00,
2013-06-06 12:03:00,77.2,45.1,25.48,NE,45,15.2,15.2,32,0.00,,---,0.00,VWS V14.01,2013-06-06 17:03:00,
2013-06-06 12:08:00,77.2,45.1,25.48,NE,45,15.2,15.2,32,0.00,,---,0.00,VWS V14.01,2013-06-06 17:08:00,
2013-06-06 12:13:00,77.2,45.1,25.48,NE,45,13.2,15.2,32,0.00,,---,0.00,VWS V14.01,2013-06-06 17:13:00,
2013-06-06 12:18:00,77.2,45.1,25.48,NE,45,13.2,13.2,32,0.00,,---,0.00,VWS V14.01,2013-06-06 17:18:00,
2013-06-06 12:23:00,78.1,45.8,25.48,NE,45,13.0,13.0,32,0.00,,---,0.00,VWS V14.01,2013-06-06 17:23:00,
2013-06-06 12:28:00,78.1,45.8,25.48,NNE,22,15.4,15.4,32,0.00,,---,0.00,VWS V14.01,2013-06-06 17:28:00,
2013-06-06 12:33:00,78.6,45.5,25.48,NNE,22,15.4,15.4,31,0.00,,---,0.00,VWS V14.01,2013-06-06 17:33:00,
2013-06-06 12:38:00,78.6,45.5,25.48,NNE,22,15.4,15.4,31,0.00,,---,0.00,VWS V14.01,2013-06-06 17:38:00,
2013-06-06 12:43:00,78.6,45.5,25.48,NNE,22,15.4,15.4,31,0.00,,---,0.00,VWS V14.01,2013-06-06 17:43:00,
2013-06-06 12:48:00,78.6,45.5,25.48,NE,45,10.3,12.8,31,0.00,,---,0.00,VWS V14.01,2013-06-06 17:48:00,
2013-06-06 12:53:00,78.6,45.5,25.48,NE,45,10.3,12.8,31,0.00,,---,0.00,VWS V14.01,2013-06-06 17:53:00,
2013-06-06 12:58:00,81.1,46.8,25.48,NNE,22,7.6,7.6,30,0.00,,---,0.00,VWS V14.01,2013-06-06 17:58:00,
2013-06-06 13:03:00,81.1,46.8,25.48,NNE,22,7.6,7.6,30,0.00,,---,0.00,VWS V14.01,2013-06-06 18:03:00,
2013-06-06 13:08:00,81.1,46.8,25.48,North,0,11.0,11.0,30,0.00,,---,0.00,VWS V14.01,2013-06-06 18:08:00,
2013-06-06 13:13:00,81.1,46.8,25.48,NNE,22,16.3,16.3,30,0.00,,---,0.00,VWS V14.01,2013-06-06 18:13:00,
2013-06-06 13:18:00,81.1,46.8,25.48,NNE,22,14.8,14.8,30,0.00,,---,0.00,VWS V14.01,2013-06-06 18:18:00,
2013-06-06 13:23:00,81.1,46.8,25.45,North,0,13.4,13.4,30,0.00,,---,0.00,VWS V14.01,2013-06-06 18:23:00,
2013-06-06 13:28:00,81.1,46.8,25.45,North,0,13.4,13.4,30,0.00,,---,0.00,VWS V14.01,2013-06-06 18:28:00,
2013-06-06 13:33:00,81.1,46.8,25.45,North,0,12.5,12.5,30,0.00,,---,0.00,VWS V14.01,2013-06-06 18:33:00,
2013-06-06 13:38:00,81.1,46.8,25.45,NE,45,13.9,13.9,30,0.00,,---,0.00,VWS V14.01,2013-06-06 18:38:00,
2013-06-06 13:43:00,81.1,46.8,25.45,NE,45,13.9,13.9,30,0.00,,---,0.00,VWS V14.01,2013-06-06 18:43:00,
2013-06-06 13:48:00,81.1,46.8,25.45,NE,45,13.9,13.9,30,0.00,,---,0.00,VWS V14.01,2013-06-06 18:48:00,
2013-06-06 13:53:00,83.1,46.7,25.42,NE,45,10.5,10.5,28,0.00,,---,0.00,VWS V14.01,2013-06-06 18:53:00,
2013-06-06 13:58:00,83.1,46.7,25.42,NE,45,13.0,13.0,28,0.00,,---,0.00,VWS V14.01,2013-06-06 18:58:00,
2013-06-06 14:03:00,83.1,46.7,25.42,North,0,10.7,10.7,28,0.00,,---,0.00,VWS V14.01,2013-06-06 19:03:00,
2013-06-06 14:08:00,83.3,45.9,25.42,NNE,22,11.0,15.9,27,0.00,,---,0.00,VWS V14.01,2013-06-06 19:08:00,
2013-06-06 14:13:00,83.3,45.9,25.42,NNE,22,8.1,8.1,27,0.00,,---,0.00,VWS V14.01,2013-06-06 19:13:00,
2013-06-06 14:18:00,83.3,45.9,25.42,ENE,68,15.7,15.7,27,0.00,,---,0.00,VWS V14.01,2013-06-06 19:18:00,
2013-06-06 14:23:00,83.3,45.9,25.42,NE,45,22.2,22.2,27,0.00,,---,0.00,VWS V14.01,2013-06-06 19:23:00,
2013-06-06 14:28:00,83.3,45.9,25.42,North,0,19.7,19.7,27,0.00,,---,0.00,VWS V14.01,2013-06-06 19:28:00,
2013-06-06 14:33:00,83.3,45.9,25.42,North,0,19.7,19.7,27,0.00,,---,0.00,VWS V14.01,2013-06-06 19:33:00,
2013-06-06 14:34:00,83.3,45.9,25.42,North,0,19.7,19.7,27,0.00,,---,0.00,VWS V14.01,2013-06-06 19:34:00,
2013-06-06 14:39:00,82.8,44.4,25.42,ENE,68,8.1,19.9,26,0.00,,---,0.00,VWS V14.01,2013-06-06 19:39:00,
2013-06-06 14:44:00,84.6,44.9,25.42,NNE,22,16.3,16.3,25,0.00,,---,0.00,VWS V14.01,2013-06-06 19:44:00,
2013-06-06 14:49:00,84.6,44.9,25.42,NNE,22,16.3,16.3,25,0.00,,---,0.00,VWS V14.01,2013-06-06 19:49:00,
2013-06-06 14:54:00,84.6,44.9,25.42,NNE,22,16.3,16.3,25,0.00,,---,0.00,VWS V14.01,2013-06-06 19:54:00,
2013-06-06 14:59:00,84.6,44.9,25.42,ENE,68,12.5,16.3,25,0.00,,---,0.00,VWS V14.01,2013-06-06 19:59:00,
2013-06-06 15:04:00,84.6,44.9,25.42,ENE,68,12.5,12.5,25,0.00,,---,0.00,VWS V14.01,2013-06-06 20:04:00,
2013-06-06 15:09:00,84.9,44.1,25.42,NE,45,22.8,23.3,24,0.00,,---,0.00,VWS V14.01,2013-06-06 20:09:00,
2013-06-06 15:14:00,85.3,45.5,25.42,North,0,12.5,22.8,25,0.00,,---,0.00,VWS V14.01,2013-06-06 20:14:00,
2013-06-06 15:19:00,85.3,45.5,25.42,North,0,15.7,15.7,25,0.00,,---,0.00,VWS V14.01,2013-06-06 20:19:00,
2013-06-06 15:24:00,84.4,44.8,25.39,NNE,22,13.0,15.7,25,0.00,,---,0.00,VWS V14.01,2013-06-06 20:24:00,
2013-06-06 15:29:00,84.4,44.8,25.39,ENE,68,19.2,19.2,25,0.00,,---,0.00,VWS V14.01,2013-06-06 20:29:00,
2013-06-06 15:34:00,84.4,44.8,25.39,NE,45,15.9,19.2,25,0.00,,---,0.00,VWS V14.01,2013-06-06 20:34:00,
2013-06-06 15:39:00,84.4,44.8,25.39,ENE,68,15.2,15.2,25,0.00,,---,0.00,VWS V14.01,2013-06-06 20:39:00,
2013-06-06 15:44:00,85.3,45.5,25.39,ENE,68,15.2,15.2,25,0.00,,---,0.00,VWS V14.01,2013-06-06 20:44:00,
2013-06-06 15:49:00,85.3,45.5,25.39,ENE,68,13.2,13.2,25,0.00,,---,0.00,VWS V14.01,2013-06-06 20:49:00,
2013-06-06 15:54:00,84.6,43.8,25.39,NE,45,12.8,13.2,24,0.00,,---,0.00,VWS V14.01,2013-06-06 20:54:00,
2013-06-06 15:59:00,84.6,43.8,25.39,NE,45,13.6,13.6,24,0.00,,---,0.00,VWS V14.01,2013-06-06 20:59:00,
2013-06-06 16:04:00,84.6,43.8,25.37,NE,45,14.8,14.8,24,0.00,,---,0.00,VWS V14.01,2013-06-06 21:04:00,
2013-06-06 16:09:00,84.6,43.8,25.37,NNE,22,13.6,13.6,24,0.00,,---,0.00,VWS V14.01,2013-06-06 21:09:00,
2013-06-06 16:14:00,84.6,43.8,25.37,NE,45,13.2,13.2,24,0.00,,---,0.00,VWS V14.01,2013-06-06 21:14:00,
2013-06-06 16:19:00,84.6,43.8,25.37,NNE,22,13.2,16.3,24,0.00,,---,0.00,VWS V14.01,2013-06-06 21:19:00,
2013-06-06 16:24:00,84.6,43.8,25.39,North,0,13.2,14.8,24,0.00,,---,0.00,VWS V14.01,2013-06-06 21:24:00,
2013-06-06 16:29:00,84.6,43.8,25.39,NNE,22,15.2,17.9,24,0.00,,---,0.00,VWS V14.01,2013-06-06 21:29:00,
2013-06-06 16:34:00,84.6,43.8,25.39,NNE,22,6.3,6.3,24,0.00,,---,0.00,VWS V14.01,2013-06-06 21:34:00,
2013-06-06 16:39:00,84.6,43.8,25.39,ENE,68,10.1,10.1,24,0.00,,---,0.00,VWS V14.01,2013-06-06 21:39:00,
2013-06-06 16:44:00,84.6,43.8,25.39,NE,45,11.0,11.0,24,0.00,,---,0.00,VWS V14.01,2013-06-06 21:44:00,
2013-06-06 16:49:00,84.4,42.6,25.39,NNE,22,17.5,17.5,23,0.00,,---,0.00,VWS V14.01,2013-06-06 21:49:00,
2013-06-06 16:54:00,84.4,42.6,25.39,NNE,22,17.5,17.5,23,0.00,,---,0.00,VWS V14.01,2013-06-06 21:54:00,
2013-06-06 16:59:00,84.4,42.6,25.39,NNE,22,17.9,17.9,23,0.00,,---,0.00,VWS V14.01,2013-06-06 21:59:00,
2013-06-06 17:04:00,84.4,42.6,25.39,ENE,68,7.8,7.8,23,0.00,,---,0.00,VWS V14.01,2013-06-06 22:04:00,
2013-06-06 17:09:00,84.4,42.6,25.39,ENE,68,7.8,7.8,23,0.00,,---,0.00,VWS V14.01,2013-06-06 22:09:00,
2013-06-06 17:14:00,84.4,42.6,25.39,ENE,68,15.2,15.2,23,0.00,,---,0.00,VWS V14.01,2013-06-06 22:14:00,
2013-06-06 17:19:00,84.4,42.6,25.39,NE,45,13.0,13.0,23,0.00,,---,0.00,VWS V14.01,2013-06-06 22:19:00,
2013-06-06 17:24:00,84.4,42.6,25.39,NNW,338,7.4,7.4,23,0.00,,---,0.00,VWS V14.01,2013-06-06 22:24:00,
2013-06-06 17:29:00,84.4,42.6,25.39,North,0,14.5,14.5,23,0.00,,---,0.00,VWS V14.01,2013-06-06 22:29:00,
2013-06-06 17:34:00,84.4,42.6,25.42,NNW,338,12.3,12.3,23,0.00,,---,0.00,VWS V14.01,2013-06-06 22:34:00,
2013-06-06 17:39:00,84.4,42.6,25.42,NNW,338,12.3,12.3,23,0.00,,---,0.00,VWS V14.01,2013-06-06 22:39:00,
2013-06-06 17:44:00,84.4,42.6,25.42,North,0,13.2,13.2,23,0.00,,---,0.00,VWS V14.01,2013-06-06 22:44:00,
2013-06-06 17:49:00,83.5,41.8,25.39,NNE,22,14.8,18.6,23,0.00,,---,0.00,VWS V14.01,2013-06-06 22:49:00,
2013-06-06 17:54:00,83.5,41.8,25.39,NNE,22,10.7,14.5,23,0.00,,---,0.00,VWS V14.01,2013-06-06 22:54:00,
2013-06-06 17:59:00,83.5,41.8,25.39,NNE,22,12.3,17.7,23,0.00,,---,0.00,VWS V14.01,2013-06-06 22:59:00,
2013-06-06 18:04:00,81.3,42.2,25.39,NNE,22,17.5,19.9,25,0.00,,---,0.00,VWS V14.01,2013-06-06 23:04:00,
2013-06-06 18:09:00,81.3,42.2,25.39,NNE,22,17.5,17.5,25,0.00,,---,0.00,VWS V14.01,2013-06-06 23:09:00,
2013-06-06 18:14:00,81.3,42.2,25.39,ENE,68,13.2,13.2,25,0.00,,---,0.00,VWS V14.01,2013-06-06 23:14:00,
2013-06-06 18:19:00,81.3,42.2,25.39,NNE,22,7.8,12.3,25,0.00,,---,0.00,VWS V14.01,2013-06-06 23:19:00,
2013-06-06 18:24:00,81.3,42.2,25.37,NNE,22,7.8,7.8,25,0.00,,---,0.00,VWS V14.01,2013-06-06 23:24:00,
2013-06-06 18:29:00,81.9,43.7,25.37,NNE,22,12.8,12.8,26,0.00,,---,0.00,VWS V14.01,2013-06-06 23:29:00,
2013-06-06 18:34:00,81.9,43.7,25.37,NNE,22,12.8,12.8,26,0.00,,---,0.00,VWS V14.01,2013-06-06 23:34:00,
2013-06-06 18:39:00,81.9,43.7,25.37,NE,45,13.0,13.0,26,0.00,,---,0.00,VWS V14.01,2013-06-06 23:39:00,
2013-06-06 18:44:00,81.9,44.6,25.37,North,0,13.0,13.0,27,0.00,,---,0.00,VWS V14.01,2013-06-06 23:44:00,
2013-06-06 18:49:00,81.9,44.6,25.37,NNE,22,10.3,13.0,27,0.00,,---,0.00,VWS V14.01,2013-06-06 23:49:00,
2013-06-06 18:54:00,81.9,44.6,25.37,NNE,22,10.3,10.3,27,0.00,,---,0.00,VWS V14.01,2013-06-06 23:54:00,
2013-06-06 18:59:00,81.9,44.6,25.37,NNE,22,12.5,12.5,27,0.00,,---,0.00,VWS V14.01,2013-06-06 23:59:00,
2013-06-06 19:04:00,81.9,44.6,25.37,NNE,22,15.7,15.7,27,0.00,,---,0.00,VWS V14.01,2013-06-07 00:04:00,
2013-06-06 19:09:00,81.9,44.6,25.37,NE,45,13.4,13.4,27,0.00,,---,0.00,VWS V14.01,2013-06-07 00:09:00,
2013-06-06 19:14:00,81.9,44.6,25.37,NE,45,13.4,13.4,27,0.00,,---,0.00,VWS V14.01,2013-06-07 00:14:00,
2013-06-06 19:19:00,81.9,44.6,25.37,NNE,22,18.6,18.6,27,0.00,,---,0.00,VWS V14.01,2013-06-07 00:19:00,
2013-06-06 19:24:00,81.9,44.6,25.37,ENE,68,11.2,11.2,27,0.00,,---,0.00,VWS V14.01,2013-06-07 00:24:00,
2013-06-06 19:29:00,81.9,44.6,25.34,NE,45,8.5,8.5,27,0.00,,---,0.00,VWS V14.01,2013-06-07 00:29:00,
2013-06-06 19:34:00,81.9,44.6,25.34,NE,45,8.5,8.5,27,0.00,,---,0.00,VWS V14.01,2013-06-07 00:34:00,
2013-06-06 19:39:00,81.9,44.6,25.37,NE,45,8.5,8.5,27,0.00,,---,0.00,VWS V14.01,2013-06-07 00:39:00,
2013-06-06 19:44:00,81.9,44.6,25.37,ENE,68,10.1,10.1,27,0.00,,---,0.00,VWS V14.01,2013-06-07 00:44:00,
2013-06-06 19:49:00,81.9,44.6,25.37,NNE,22,14.8,14.8,27,0.00,,---,0.00,VWS V14.01,2013-06-07 00:49:00,
2013-06-06 19:54:00,81.9,44.6,25.37,NE,45,10.5,14.8,27,0.00,,---,0.00,VWS V14.01,2013-06-07 00:54:00,
2013-06-06 19:59:00,81.9,44.6,25.37,NNE,22,10.1,10.5,27,0.00,,---,0.00,VWS V14.01,2013-06-07 00:59:00,
2013-06-06 20:04:00,81.9,44.6,25.37,NE,45,11.4,11.4,27,0.00,,---,0.00,VWS V14.01,2013-06-07 01:04:00,
2013-06-06 20:09:00,81.9,44.6,25.37,NE,45,12.5,16.3,27,0.00,,---,0.00,VWS V14.01,2013-06-07 01:09:00,
2013-06-06 20:14:00,81.9,44.6,25.37,NE,45,12.5,12.5,27,0.00,,---,0.00,VWS V14.01,2013-06-07 01:14:00,
2013-06-06 20:19:00,80.4,42.4,25.37,NE,45,15.4,15.4,26,0.00,,---,0.00,VWS V14.01,2013-06-07 01:19:00,
2013-06-06 20:24:00,80.4,42.4,25.37,NNE,22,10.7,15.4,26,0.00,,---,0.00,VWS V14.01,2013-06-07 01:24:00,
2013-06-06 20:29:00,80.4,42.4,25.37,ENE,68,15.4,15.4,26,0.00,,---,0.00,VWS V14.01,2013-06-07 01:29:00,
2013-06-06 20:34:00,80.4,42.4,25.37,NNE,22,11.0,11.0,26,0.00,,---,0.00,VWS V14.01,2013-06-07 01:34:00,
2013-06-06 20:39:00,78.6,44.6,25.37,NNE,22,11.0,11.0,30,0.00,,---,0.00,VWS V14.01,2013-06-07 01:39:00,
2013-06-06 20:44:00,78.6,44.6,25.37,NNE,22,10.7,12.3,30,0.00,,---,0.00,VWS V14.01,2013-06-07 01:44:00,
2013-06-06 20:49:00,78.6,44.6,25.37,NNE,22,12.5,12.5,30,0.00,,---,0.00,VWS V14.01,2013-06-07 01:49:00,
2013-06-06 20:54:00,78.6,44.6,25.37,NNE,22,15.2,15.2,30,0.00,,---,0.00,VWS V14.01,2013-06-07 01:54:00,
2013-06-06 20:59:00,77.4,44.4,25.37,NNE,22,15.2,15.2,31,0.00,,---,0.00,VWS V14.01,2013-06-07 01:59:00,
2013-06-06 21:04:00,77.4,44.4,25.37,NNE,22,15.2,15.2,31,0.00,,---,0.00,VWS V14.01,2013-06-07 02:04:00,
2013-06-06 21:09:00,77.4,44.4,25.37,NNE,22,15.2,15.2,31,0.00,,---,0.00,VWS V14.01,2013-06-07 02:09:00,
2013-06-06 21:14:00,77.4,44.4,25.37,NNE,22,12.3,12.3,31,0.00,,---,0.00,VWS V14.01,2013-06-07 02:14:00,
2013-06-06 21:19:00,77.4,44.4,25.37,NNE,22,12.3,12.3,31,0.00,,---,0.00,VWS V14.01,2013-06-07 02:19:00,
2013-06-06 21:24:00,75.9,44.0,25.37,NNE,22,12.3,12.3,32,0.00,,---,0.00,VWS V14.01,2013-06-07 02:24:00,
2013-06-06 21:29:00,75.9,44.0,25.37,NE,45,8.7,8.7,32,0.00,,---,0.00,VWS V14.01,2013-06-07 02:29:00,
2013-06-06 21:34:00,75.9,44.0,25.37,NNE,22,11.2,11.2,32,0.00,,---,0.00,VWS V14.01,2013-06-07 02:34:00,
2013-06-06 21:39:00,75.9,44.0,25.37,NNE,22,11.2,11.2,32,0.00,,---,0.00,VWS V14.01,2013-06-07 02:39:00,
2013-06-06 21:44:00,75.4,44.3,25.37,NE,45,10.7,10.7,33,0.00,,---,0.00,VWS V14.01,2013-06-07 02:44:00,
2013-06-06 21:49:00,75.2,44.2,25.37,NNE,22,12.1,12.1,33,0.00,,---,0.00,VWS V14.01,2013-06-07 02:49:00,
2013-06-06 21:54:00,75.2,44.2,25.37,NNE,22,7.6,12.1,33,0.00,,---,0.00,VWS V14.01,2013-06-07 02:54:00,
2013-06-06 21:59:00,74.7,44.5,25.37,NE,45,9.6,9.6,34,0.00,,---,0.00,VWS V14.01,2013-06-07 02:59:00,
2013-06-06 22:04:00,74.7,44.5,25.37,NE,45,8.7,8.7,34,0.00,,---,0.00,VWS V14.01,2013-06-07 03:04:00,
2013-06-06 22:09:00,74.3,44.9,25.37,NE,45,8.5,10.7,35,0.00,,---,0.00,VWS V14.01,2013-06-07 03:09:00,
2013-06-06 22:14:00,74.1,44.8,25.37,ENE,68,7.6,9.4,35,0.00,,---,0.00,VWS V14.01,2013-06-07 03:14:00,
2013-06-06 22:19:00,73.8,45.2,25.39,NNE,22,7.8,10.1,36,0.00,,---,0.00,VWS V14.01,2013-06-07 03:19:00,
2013-06-06 22:24:00,73.8,45.2,25.39,NE,45,7.4,7.4,36,0.00,,---,0.00,VWS V14.01,2013-06-07 03:24:00,
2013-06-06 22:29:00,73.6,45.0,25.39,ENE,68,7.4,8.5,36,0.00,,---,0.00,VWS V14.01,2013-06-07 03:29:00,
2013-06-06 22:34:00,73.6,45.0,25.39,NNE,22,10.1,10.1,36,0.00,,---,0.00,VWS V14.01,2013-06-07 03:34:00,
2013-06-06 22:39:00,73.6,45.7,25.39,ENE,68,10.1,10.1,37,0.00,,---,0.00,VWS V14.01,2013-06-07 03:39:00,
2013-06-06 22:44:00,73.4,45.6,25.39,NE,45,8.7,10.7,37,0.00,,---,0.00,VWS V14.01,2013-06-07 03:44:00,
2013-06-06 22:49:00,73.2,46.1,25.42,NE,45,8.5,8.5,38,0.00,,---,0.00,VWS V14.01,2013-06-07 03:49:00,
2013-06-06 22:54:00,73.2,46.1,25.42,ENE,68,8.7,9.2,38,0.00,,---,0.00,VWS V14.01,2013-06-07 03:54:00,
2013-06-06 22:59:00,73.0,46.0,25.42,ENE,68,10.3,10.3,38,0.00,,---,0.00,VWS V14.01,2013-06-07 03:59:00,
2013-06-06 23:01:00,73.0,46.0,25.42,ENE,68,8.1,10.5,38,0.00,,---,0.00,VWS V14.01,2013-06-07 04:01:00,
2013-06-06 23:06:00,72.9,46.5,25.42,ENE,68,8.5,8.5,39,0.00,,---,0.00,VWS V14.01,2013-06-07 04:06:00,
2013-06-06 23:11:00,72.7,46.3,25.42,NE,45,5.6,6.5,39,0.00,,---,0.00,VWS V14.01,2013-06-07 04:11:00,
2013-06-06 23:17:00,72.5,46.2,25.39,ENE,68,7.6,7.6,39,0.00,,---,0.00,VWS V14.01,2013-06-07 04:17:00,
2013-06-06 23:22:00,72.3,46.7,25.39,ENE,68,6.3,6.5,40,0.00,,---,0.00,VWS V14.01,2013-06-07 04:22:00,
2013-06-06 23:27:00,72.1,47.2,25.39,NE,45,7.6,8.5,41,0.00,,---,0.00,VWS V14.01,2013-06-07 04:27:00,
2013-06-06 23:32:00,72.1,47.2,25.42,ENE,68,6.0,7.4,41,0.00,,---,0.00,VWS V14.01,2013-06-07 04:32:00,
2013-06-06 23:37:00,72.0,47.0,25.42,East,90,4.9,6.7,41,0.00,,---,0.00,VWS V14.01,2013-06-07 04:37:00,
2013-06-06 23:42:00,71.8,47.5,25.42,ESE,112,5.4,6.5,42,0.00,,---,0.00,VWS V14.01,2013-06-07 04:42:00,
2013-06-06 23:47:00,71.6,47.9,25.45,East,90,5.4,5.4,43,0.00,,---,0.00,VWS V14.01,2013-06-07 04:47:00,
2013-06-06 23:52:00,71.8,49.3,25.45,ESE,112,6.7,8.5,45,0.00,,---,0.00,VWS V14.01,2013-06-07 04:52:00,
2013-06-06 23:57:00,72.0,50.1,25.45,East,90,7.4,10.3,46,0.00,,---,0.00,VWS V14.01,2013-06-07 04:57:00,